createdAt,value
2023-04-05T00:01:20.165Z,3.93
2023-04-05T00:03:48.744Z,4.93
2023-04-05T00:06:17.181Z,2.10
2023-04-05T00:08:50.004Z,3.13
2023-04-05T00:11:18.734Z,3.13
2023-04-05T00:13:48.460Z,2.50
2023-04-05T00:16:17.142Z,2.47
2023-04-05T00:18:50.054Z,2.73
2023-04-05T00:21:18.579Z,3.53
2023-04-05T00:23:46.889Z,4.67
2023-04-05T00:26:15.652Z,2.50
2023-04-05T00:28:44.002Z,3.10
2023-04-05T00:31:13.855Z,2.30
2023-04-05T00:33:42.109Z,3.87
2023-04-05T00:36:11.724Z,3.27
2023-04-05T00:38:40.957Z,3.87
2023-04-05T00:41:09.519Z,2.63
2023-04-05T00:43:37.832Z,3.60
2023-04-05T00:46:07.057Z,4.73
2023-04-05T00:48:37.552Z,3.13
2023-04-05T00:51:09.480Z,3.30
2023-04-05T00:53:38.652Z,2.80
2023-04-05T00:56:07.806Z,3.47
2023-04-05T00:58:36.960Z,2.67
2023-04-05T01:01:14.150Z,3.07
2023-04-05T01:03:48.030Z,2.50
2023-04-05T01:06:28.024Z,2.67
2023-04-05T01:09:06.515Z,2.90
2023-04-05T01:11:36.645Z,2.27
2023-04-05T01:14:05.125Z,3.77
2023-04-05T01:16:33.409Z,2.57
2023-04-05T01:19:04.006Z,2.90
2023-04-05T01:22:14.916Z,2.47
2023-04-05T01:25:19.558Z,2.60
2023-04-05T01:28:12.045Z,2.90
2023-04-05T01:30:45.454Z,5.20
2023-04-05T01:33:18.549Z,2.77
2023-04-05T01:35:52.166Z,2.77
2023-04-05T01:38:25.144Z,4.67
2023-04-05T01:40:54.548Z,3.53
2023-04-05T01:43:22.858Z,2.97
2023-04-05T01:45:52.602Z,4.67
2023-04-05T01:48:21.146Z,3.40
2023-04-05T01:50:49.429Z,3.77
2023-04-05T01:53:17.877Z,2.83
2023-04-05T01:55:46.241Z,2.93
2023-04-05T01:58:14.646Z,4.93
2023-04-05T02:00:43.248Z,3.47
2023-04-05T02:03:13.337Z,3.90
2023-04-05T02:05:41.667Z,3.63
2023-04-05T02:08:09.930Z,4.17
2023-04-05T02:10:38.225Z,6.70
2023-04-05T02:13:06.542Z,3.63
2023-04-05T02:15:34.868Z,3.40
2023-04-05T02:18:03.751Z,2.80
2023-04-05T02:20:34.728Z,3.90
2023-04-05T02:23:03.213Z,2.83
2023-04-05T02:25:31.477Z,3.70
2023-04-05T02:27:59.773Z,5.47
2023-04-05T02:30:29.084Z,3.17
2023-04-05T02:32:57.511Z,3.67
2023-04-05T02:35:26.061Z,3.63
2023-04-05T02:37:56.824Z,3.13
2023-04-05T02:40:25.468Z,4.43
2023-04-05T02:42:53.798Z,4.43
2023-04-05T02:45:22.111Z,4.17
2023-04-05T02:47:50.476Z,4.00
2023-04-05T02:50:20.691Z,4.77
2023-04-05T02:52:49.036Z,4.83
2023-04-05T02:55:19.118Z,3.93
2023-04-05T02:57:47.511Z,4.53
2023-04-05T03:00:17.100Z,5.90
2023-04-05T03:02:45.510Z,3.07
2023-04-05T03:05:14.170Z,3.83
2023-04-05T03:07:46.350Z,5.90
2023-04-05T03:10:18.734Z,5.83
2023-04-05T03:12:48.429Z,3.30
2023-04-05T03:15:17.144Z,3.20
2023-04-05T03:17:46.013Z,4.23
2023-04-05T03:20:14.937Z,3.27
2023-04-05T03:22:43.252Z,3.53
2023-04-05T03:25:11.563Z,3.33
2023-04-05T03:27:39.848Z,3.97
2023-04-05T03:30:11.119Z,4.33
2023-04-05T03:32:39.537Z,3.27
2023-04-05T03:35:08.295Z,3.57
2023-04-05T03:37:36.564Z,3.97
2023-04-05T03:40:06.644Z,3.83
2023-04-05T03:42:34.918Z,3.53
2023-04-05T03:45:03.325Z,3.37
2023-04-05T03:47:33.177Z,4.20
2023-04-05T03:50:02.675Z,3.60
2023-04-05T03:52:31.003Z,3.40
2023-04-05T03:54:59.315Z,2.97
2023-04-05T03:57:29.086Z,3.83
2023-04-05T03:59:57.447Z,3.37
2023-04-05T04:02:25.925Z,2.90
2023-04-05T04:04:55.760Z,3.00
2023-04-05T04:07:24.106Z,3.73
2023-04-05T04:09:52.385Z,4.13
2023-04-05T04:12:20.706Z,3.90
2023-04-05T04:14:48.923Z,2.60
2023-04-05T04:17:28.631Z,3.73
2023-04-05T04:19:58.930Z,3.80
2023-04-05T04:22:33.223Z,3.60
2023-04-05T04:25:04.535Z,2.93
2023-04-05T04:27:36.137Z,3.30
2023-04-05T04:30:05.632Z,3.10
2023-04-05T04:35:29.327Z,4.07
2023-04-05T04:37:59.140Z,2.57
2023-04-05T04:40:32.544Z,3.97
2023-04-05T04:43:01.746Z,3.17
2023-04-05T04:45:34.863Z,4.80
2023-04-05T04:48:05.034Z,3.60
2023-04-05T04:50:35.127Z,2.77
2023-04-05T04:53:03.609Z,3.23
2023-04-05T04:55:33.585Z,4.33
2023-04-05T04:58:01.931Z,3.30
2023-04-05T05:00:30.257Z,5.80
2023-04-05T05:02:58.495Z,4.73
2023-04-05T05:05:27.589Z,6.63
2023-04-05T05:07:57.352Z,6.00
2023-04-05T05:10:25.846Z,6.67
2023-04-05T05:12:54.118Z,5.30
2023-04-05T05:15:22.651Z,6.43
2023-04-05T05:17:53.236Z,4.07
2023-04-05T05:20:22.062Z,4.03
2023-04-05T05:22:51.292Z,5.40
2023-04-05T05:25:21.708Z,4.40
2023-04-05T05:27:51.149Z,5.40
2023-04-05T05:30:21.115Z,5.17
2023-04-05T05:32:49.522Z,5.60
2023-04-05T05:35:18.282Z,6.03
2023-04-05T05:37:46.680Z,5.20
2023-04-05T05:40:16.541Z,4.67
2023-04-05T05:42:46.320Z,5.00
2023-04-05T05:45:14.765Z,3.90
2023-04-05T05:47:43.476Z,4.50
2023-04-05T05:50:12.757Z,2.97
2023-04-05T05:52:41.028Z,5.27
2023-04-05T05:55:09.962Z,4.47
2023-04-05T05:57:39.030Z,3.90
2023-04-05T06:00:10.656Z,4.47
2023-04-05T06:02:39.205Z,4.57
2023-04-05T06:05:08.962Z,3.40
2023-04-05T06:07:38.344Z,6.63
2023-04-05T06:10:07.713Z,5.60
2023-04-05T06:12:36.434Z,4.03
2023-04-05T06:15:05.021Z,3.70
2023-04-05T06:17:40.310Z,6.57
2023-04-05T06:20:10.889Z,5.67
2023-04-05T06:22:40.438Z,5.33
2023-04-05T06:25:10.281Z,7.57
2023-04-05T06:27:38.534Z,5.67
2023-04-05T06:30:08.201Z,27.17
2023-04-05T06:32:37.979Z,30.90
2023-04-05T06:35:07.594Z,27.00
2023-04-05T06:37:36.028Z,13.63
2023-04-05T06:40:04.666Z,20.70
2023-04-05T06:42:32.873Z,24.93
2023-04-05T06:45:01.096Z,10.60
2023-04-05T06:47:29.393Z,7.30
2023-04-05T06:49:59.100Z,6.03
2023-04-05T06:52:27.392Z,5.97
2023-04-05T06:54:56.300Z,7.23
2023-04-05T06:57:24.627Z,3.90
2023-04-05T06:59:52.997Z,3.60
2023-04-05T07:02:21.400Z,3.67
2023-04-05T07:04:50.264Z,4.50
2023-04-05T07:07:19.987Z,4.10
2023-04-05T07:09:48.409Z,3.47
2023-04-05T07:12:16.791Z,4.47
2023-04-05T07:14:45.014Z,3.87
2023-04-05T07:17:13.281Z,3.43
2023-04-05T07:19:41.501Z,3.63
2023-04-05T07:22:09.910Z,3.60
2023-04-05T07:24:39.548Z,3.93
2023-04-05T07:27:07.862Z,3.10
2023-04-05T07:29:40.754Z,3.63
2023-04-05T07:32:09.700Z,3.03
2023-04-05T07:34:38.536Z,2.83
2023-04-05T07:37:07.553Z,4.70
2023-04-05T07:39:35.913Z,3.00
2023-04-05T07:42:05.866Z,4.73
2023-04-05T07:44:34.172Z,4.00
2023-04-05T07:47:04.081Z,4.97
2023-04-05T07:49:32.394Z,4.57
2023-04-05T07:52:00.881Z,4.70
2023-04-05T07:54:29.147Z,3.87
2023-04-05T07:56:58.199Z,3.97
2023-04-05T07:59:27.904Z,4.13
2023-04-05T08:02:01.760Z,3.93
2023-04-05T08:04:33.202Z,3.20
2023-04-05T08:07:01.681Z,5.40
2023-04-05T08:09:30.076Z,3.53
2023-04-05T08:11:58.506Z,3.17
2023-04-05T08:14:28.215Z,4.30
2023-04-05T08:16:56.620Z,3.20
2023-04-05T08:19:24.946Z,3.67
2023-04-05T08:21:54.286Z,4.70
2023-04-05T08:24:22.579Z,3.43
2023-04-05T08:26:51.018Z,3.07
2023-04-05T08:29:19.315Z,4.53
2023-04-05T08:31:49.052Z,4.10
2023-04-05T08:34:17.453Z,2.53
2023-04-05T08:36:47.126Z,3.03
2023-04-05T08:39:16.972Z,3.37
2023-04-05T08:41:53.337Z,3.57
2023-04-05T08:44:27.138Z,3.10
2023-04-05T08:46:59.412Z,3.87
2023-04-05T08:49:27.823Z,3.73
2023-04-05T08:51:56.752Z,3.90
2023-04-05T08:54:25.019Z,3.30
2023-04-05T08:56:55.051Z,5.23
2023-04-05T08:59:24.784Z,3.40
2023-04-05T09:01:53.701Z,2.70
2023-04-05T09:04:24.567Z,2.77
2023-04-05T09:06:53.446Z,2.83
2023-04-05T09:09:23.955Z,3.03
2023-04-05T09:11:52.471Z,3.43
2023-04-05T09:14:21.535Z,3.40
2023-04-05T09:16:49.975Z,3.13
2023-04-05T09:19:18.390Z,4.03
2023-04-05T09:22:04.991Z,3.07
2023-04-05T09:24:39.918Z,2.73
2023-04-05T09:27:10.284Z,4.77
2023-04-05T09:29:39.581Z,3.80
2023-04-05T09:32:09.153Z,3.23
2023-04-05T09:34:38.076Z,3.00
2023-04-05T09:37:14.935Z,3.17
2023-04-05T09:39:43.932Z,4.60
2023-04-05T09:42:15.617Z,3.13
2023-04-05T09:44:51.578Z,2.80
2023-04-05T09:47:21.395Z,3.97
2023-04-05T09:49:49.829Z,4.23
2023-04-05T09:52:27.245Z,2.83
2023-04-05T09:54:56.797Z,4.07
2023-04-05T09:57:26.551Z,4.33
2023-04-05T09:59:55.694Z,4.57
2023-04-05T10:02:24.626Z,3.93
2023-04-05T10:04:53.316Z,3.37
2023-04-05T10:07:21.725Z,3.33
2023-04-05T10:09:51.346Z,3.20
2023-04-05T10:12:27.053Z,3.70
2023-04-05T10:14:56.975Z,3.27
2023-04-05T10:17:29.538Z,2.73
2023-04-05T10:20:06.311Z,3.23
2023-04-05T10:22:37.952Z,3.23
2023-04-05T10:25:14.532Z,3.43
2023-04-05T10:27:49.763Z,2.73
2023-04-05T10:30:18.979Z,4.67
2023-04-05T10:33:02.470Z,2.70
2023-04-05T10:35:36.677Z,2.63
2023-04-05T10:38:18.813Z,3.53
2023-04-05T10:40:49.512Z,3.42
2023-04-05T10:43:22.022Z,4.07
2023-04-05T10:45:53.662Z,2.97
2023-04-05T10:48:43.167Z,2.80
2023-04-05T10:51:12.712Z,3.13
2023-04-05T10:53:42.532Z,3.03
2023-04-05T10:56:13.322Z,3.05
2023-04-05T10:58:42.473Z,2.67
2023-04-05T11:01:11.638Z,2.65
2023-04-05T11:03:46.275Z,2.55
2023-04-05T11:06:32.462Z,2.72
2023-04-05T11:09:02.915Z,3.00
2023-04-05T11:11:40.584Z,3.72
2023-04-05T11:14:21.091Z,3.55
2023-04-05T11:16:53.570Z,4.82
2023-04-05T11:19:22.377Z,2.60
2023-04-05T11:22:03.161Z,2.40
2023-04-05T11:24:52.523Z,2.40
2023-04-05T11:27:27.175Z,4.55
2023-04-05T11:29:56.340Z,7.15
2023-04-05T11:32:25.238Z,4.18
2023-04-05T11:35:01.268Z,6.25
2023-04-05T11:37:55.264Z,4.38
2023-04-05T11:40:28.539Z,3.20
2023-04-05T11:43:05.947Z,3.72
2023-04-05T11:45:35.284Z,2.40
2023-04-05T11:48:07.376Z,2.45
2023-04-05T11:50:36.946Z,2.20
2023-04-05T11:53:15.571Z,4.22
2023-04-05T11:55:45.651Z,2.50
2023-04-05T11:58:16.880Z,4.43
2023-04-05T12:00:46.512Z,2.33
2023-04-05T12:03:15.491Z,4.55
2023-04-05T12:05:50.925Z,5.18
2023-04-05T12:08:19.773Z,5.93
2023-04-05T12:10:56.156Z,20.38
2023-04-05T12:13:30.475Z,20.27
2023-04-05T12:16:03.314Z,8.65
2023-04-05T12:18:33.453Z,4.43
2023-04-05T12:21:06.413Z,3.78
2023-04-05T12:23:36.027Z,3.55
2023-04-05T12:26:05.777Z,3.20
2023-04-05T12:28:54.108Z,2.97
2023-04-05T12:31:39.709Z,2.75
2023-04-05T12:34:08.346Z,2.72
2023-04-05T12:36:37.489Z,3.95
2023-04-05T12:39:09.534Z,4.53
2023-04-05T12:41:38.305Z,6.75
2023-04-05T12:44:16.738Z,9.68
2023-04-05T12:46:46.428Z,16.10
2023-04-05T12:49:17.222Z,10.95
2023-04-05T12:51:46.203Z,6.35
2023-04-05T12:54:15.431Z,9.13
2023-04-05T12:56:43.745Z,5.45
2023-04-05T12:59:12.181Z,6.95
2023-04-05T13:01:42.083Z,13.02
2023-04-05T13:04:16.254Z,7.20
2023-04-05T13:06:47.444Z,5.55
2023-04-05T13:09:16.325Z,7.65
2023-04-05T13:11:44.594Z,4.75
2023-04-05T13:14:12.882Z,4.07
2023-04-05T13:16:42.667Z,3.47
2023-04-05T13:19:11.094Z,7.25
2023-04-05T13:21:39.455Z,4.72
2023-04-05T13:24:08.836Z,6.47
2023-04-05T13:26:37.824Z,3.97
2023-04-05T13:29:06.137Z,2.60
2023-04-05T13:31:34.693Z,2.30
2023-04-05T13:34:04.714Z,2.53
2023-04-05T13:36:33.012Z,2.33
2023-04-05T13:39:01.280Z,2.50
2023-04-05T13:41:30.402Z,2.95
2023-04-05T13:44:01.545Z,2.85
2023-04-05T13:46:31.148Z,3.70
2023-04-05T13:48:59.496Z,2.15
2023-04-05T13:51:32.253Z,2.10
2023-04-05T13:54:00.617Z,4.57
2023-04-05T13:56:28.928Z,4.57
2023-04-05T13:58:57.253Z,2.60
2023-04-05T14:01:25.621Z,4.38
2023-04-05T14:03:54.044Z,4.03
2023-04-05T14:06:22.606Z,3.63
2023-04-05T14:09:15.335Z,3.60
2023-04-05T14:11:59.148Z,3.90
2023-04-05T14:14:27.636Z,6.93
2023-04-05T14:16:55.993Z,2.90
2023-04-05T14:19:24.385Z,3.47
2023-04-05T14:21:53.769Z,2.00
2023-04-05T14:24:23.536Z,2.10
2023-04-05T14:26:51.980Z,2.45
2023-04-05T14:29:20.493Z,3.42
2023-04-05T14:31:49.556Z,2.72
2023-04-05T14:34:19.210Z,2.47
2023-04-05T14:36:47.619Z,4.05
2023-04-05T14:39:15.975Z,2.10
2023-04-05T14:41:50.248Z,2.80
2023-04-05T14:44:18.631Z,1.98
2023-04-05T14:46:47.796Z,1.80
2023-04-05T14:49:17.352Z,2.10
2023-04-05T14:51:46.051Z,3.40
2023-04-05T14:54:14.563Z,2.35
2023-04-05T14:56:42.963Z,3.08
2023-04-05T14:59:12.842Z,2.28
2023-04-05T15:01:44.479Z,2.08
2023-04-05T15:04:14.184Z,4.32
2023-04-05T15:06:42.795Z,2.22
2023-04-05T15:09:11.220Z,2.25
2023-04-05T15:11:40.364Z,4.03
2023-04-05T15:14:15.369Z,5.78
2023-04-05T15:16:51.105Z,10.90
2023-04-05T15:19:19.595Z,8.23
2023-04-05T15:21:48.014Z,3.40
2023-04-05T15:24:16.419Z,5.15
2023-04-05T15:26:44.807Z,7.45
2023-04-05T15:29:13.235Z,4.85
2023-04-05T15:31:41.972Z,5.30
2023-04-05T15:34:11.934Z,4.00
2023-04-05T15:36:40.877Z,5.63
2023-04-05T15:39:09.410Z,3.33
2023-04-05T15:41:37.866Z,3.60
2023-04-05T15:44:06.396Z,2.78
2023-04-05T15:46:34.849Z,4.35
2023-04-05T15:49:03.704Z,8.95
2023-04-05T15:51:35.133Z,10.07
2023-04-05T15:54:04.180Z,7.55
2023-04-05T15:56:32.578Z,3.80
2023-04-05T15:59:01.215Z,2.78
2023-04-05T16:01:29.973Z,3.55
2023-04-05T16:03:58.529Z,5.80
2023-04-05T16:06:28.348Z,4.43
2023-04-05T16:08:58.162Z,4.85
2023-04-05T16:11:27.270Z,3.33
2023-04-05T16:13:56.979Z,2.78
2023-04-05T16:16:35.123Z,2.65
2023-04-05T16:19:08.168Z,3.13
2023-04-05T16:21:36.658Z,2.40
2023-04-05T16:24:07.638Z,2.58
2023-04-05T16:26:36.305Z,4.30
2023-04-05T16:29:05.194Z,2.30
2023-04-05T16:31:35.823Z,3.58
2023-04-05T16:34:04.387Z,2.83
2023-04-05T16:36:33.286Z,3.63
2023-04-05T16:39:02.070Z,6.47
2023-04-05T16:41:32.294Z,5.18
2023-04-05T16:44:00.626Z,4.03
2023-04-05T16:46:32.218Z,6.70
2023-04-05T16:49:01.253Z,5.07
2023-04-05T16:51:29.927Z,4.00
2023-04-05T16:53:58.450Z,4.72
2023-04-05T16:56:27.064Z,5.72
2023-04-05T16:58:57.657Z,5.88
2023-04-05T17:01:26.721Z,5.70
2023-04-05T17:03:55.360Z,6.20
2023-04-05T17:06:23.728Z,4.53
2023-04-05T17:08:52.192Z,4.82
2023-04-05T17:11:20.635Z,5.85
2023-04-05T17:13:49.140Z,4.13
2023-04-05T17:16:19.082Z,4.88
2023-04-05T17:18:47.671Z,3.45
2023-04-05T17:21:17.089Z,3.13
2023-04-05T17:23:45.554Z,4.70
2023-04-05T17:26:13.947Z,3.60
2023-04-05T17:28:42.444Z,6.90
2023-04-05T17:31:11.952Z,4.05
2023-04-05T17:33:41.967Z,3.83
2023-04-05T17:36:10.525Z,3.45
2023-04-05T17:38:39.099Z,4.95
2023-04-05T17:41:07.903Z,5.05
2023-04-05T17:43:36.333Z,5.13
2023-04-05T17:46:05.182Z,5.03
2023-04-05T17:48:34.116Z,4.67
2023-04-05T17:51:08.946Z,3.17
2023-04-05T17:53:37.595Z,4.20
2023-04-05T17:56:06.282Z,3.97
2023-04-05T17:58:34.823Z,4.80
2023-04-05T18:01:03.392Z,7.87
2023-04-05T18:03:32.004Z,9.67
2023-04-05T18:06:00.451Z,14.50
2023-04-05T18:08:30.438Z,13.67
2023-04-05T18:10:59.944Z,13.40
2023-04-05T18:13:29.351Z,9.10
2023-04-05T18:15:58.768Z,9.50
2023-04-05T18:18:28.730Z,16.10
2023-04-05T18:21:01.908Z,16.10
2023-04-05T18:23:31.810Z,12.97
2023-04-05T18:26:06.102Z,11.27
2023-04-05T18:28:34.576Z,12.30
2023-04-05T18:31:03.031Z,11.90
2023-04-05T18:33:31.444Z,14.10
2023-04-05T18:35:59.789Z,17.27
2023-04-05T18:38:28.286Z,12.77
2023-04-05T18:41:03.324Z,10.43
2023-04-05T18:43:32.184Z,8.73
2023-04-05T18:46:00.756Z,9.33
2023-04-05T18:48:29.253Z,7.90
2023-04-05T18:50:57.665Z,7.37
2023-04-05T18:53:26.600Z,8.43
2023-04-05T18:55:56.018Z,11.27
2023-04-05T18:58:26.128Z,8.90
2023-04-05T19:00:54.486Z,11.40
2023-04-05T19:03:23.149Z,9.57
2023-04-05T19:05:52.413Z,7.83
2023-04-05T19:08:21.275Z,8.07
2023-04-05T19:10:49.671Z,7.17
2023-04-05T19:13:18.015Z,7.27
2023-04-05T19:15:48.043Z,6.77
2023-04-05T19:18:16.526Z,6.87
2023-04-05T19:20:44.977Z,5.73
2023-04-05T19:23:13.342Z,5.63
2023-04-05T19:25:41.786Z,5.80
2023-04-05T19:28:10.137Z,6.37
2023-04-05T19:30:41.506Z,7.70
2023-04-05T19:33:11.607Z,7.93
2023-04-05T19:35:40.147Z,9.37
2023-04-05T19:38:08.891Z,8.63
2023-04-05T19:40:38.819Z,9.37
2023-04-05T19:43:07.944Z,7.47
2023-04-05T19:45:37.218Z,6.57
2023-04-05T19:48:35.966Z,6.67
2023-04-05T19:51:05.663Z,5.43
2023-04-05T19:53:41.392Z,6.57
2023-04-05T19:56:12.273Z,6.83
2023-04-05T19:58:41.021Z,7.87
2023-04-05T20:01:10.317Z,8.10
2023-04-05T20:03:41.345Z,7.77
2023-04-05T20:06:11.207Z,6.37
2023-04-05T20:08:41.566Z,5.30
2023-04-05T20:11:12.890Z,4.93
2023-04-05T20:13:44.998Z,4.60
2023-04-05T20:16:14.523Z,5.03
2023-04-05T20:18:47.511Z,5.40
2023-04-05T20:21:16.901Z,8.37
2023-04-05T20:23:46.085Z,8.27
2023-04-05T20:26:16.031Z,5.43
2023-04-05T20:28:54.639Z,5.23
2023-04-05T20:31:25.724Z,9.27
2023-04-05T20:34:03.039Z,11.63
2023-04-05T20:36:34.050Z,8.50
2023-04-05T20:39:03.349Z,7.73
2023-04-05T20:41:32.685Z,8.20
2023-04-05T20:44:01.330Z,10.90
2023-04-05T20:46:29.891Z,12.50
2023-04-05T20:48:59.861Z,9.33
2023-04-05T20:51:28.327Z,6.80
2023-04-05T20:53:57.098Z,5.53
2023-04-05T20:56:25.679Z,4.60
2023-04-05T20:58:55.058Z,5.70
2023-04-05T21:01:23.586Z,4.70
2023-04-05T21:03:53.177Z,4.83
2023-04-05T21:06:23.016Z,5.33
2023-04-05T21:08:51.408Z,5.07
2023-04-05T21:11:19.860Z,6.10
2023-04-05T21:13:48.217Z,7.50
2023-04-05T21:16:16.703Z,6.30
2023-04-05T21:18:45.148Z,5.40
2023-04-05T21:21:13.508Z,5.43
2023-04-05T21:23:44.359Z,3.53
2023-04-05T21:26:12.757Z,4.40
2023-04-05T21:28:41.184Z,4.57
2023-04-05T21:31:09.579Z,4.37
2023-04-05T21:33:38.078Z,3.50
2023-04-05T21:36:06.720Z,4.70
2023-04-05T21:38:35.211Z,4.27
2023-04-05T21:41:05.296Z,5.67
2023-04-05T21:43:33.908Z,5.20
2023-04-05T21:46:02.318Z,6.67
2023-04-05T21:48:30.736Z,7.00
2023-04-05T21:50:59.135Z,6.47
2023-04-05T21:53:27.526Z,4.30
2023-04-05T21:55:55.962Z,3.70
2023-04-05T21:58:26.537Z,3.50
2023-04-05T22:03:23.391Z,3.87
2023-04-05T22:05:51.812Z,4.27
2023-04-05T22:08:20.225Z,4.63
2023-04-05T22:10:48.720Z,7.40
2023-04-05T22:13:17.074Z,5.87
2023-04-05T22:15:47.629Z,4.27
2023-04-05T22:18:16.000Z,4.33
2023-04-05T22:20:44.441Z,3.40
2023-04-05T22:23:12.867Z,4.07
2023-04-05T22:25:41.360Z,3.40
2023-04-05T22:28:09.841Z,3.30
2023-04-05T22:30:43.585Z,3.73
2023-04-05T22:33:14.478Z,4.03
2023-04-05T22:35:43.191Z,3.73
2023-04-05T22:38:11.696Z,3.17
2023-04-05T22:40:40.237Z,3.83
2023-04-05T22:43:09.672Z,2.60
2023-04-05T22:45:38.089Z,3.00
2023-04-05T22:48:07.235Z,3.43
2023-04-05T22:50:37.095Z,3.10
2023-04-05T22:53:05.613Z,3.20
2023-04-05T22:55:34.014Z,3.93
2023-04-05T22:58:02.353Z,3.23
2023-04-05T23:00:30.818Z,2.97
2023-04-05T23:02:59.227Z,3.53
2023-04-05T23:05:27.721Z,2.40
2023-04-05T23:07:57.586Z,2.90
2023-04-05T23:10:26.120Z,2.60
2023-04-05T23:12:54.509Z,2.83
2023-04-05T23:15:23.032Z,2.93
2023-04-05T23:17:51.801Z,2.60
2023-04-05T23:20:20.406Z,3.17
2023-04-05T23:22:48.778Z,2.77
2023-04-05T23:25:18.835Z,2.40
2023-04-05T23:27:47.308Z,2.53
2023-04-05T23:30:15.999Z,2.53
2023-04-05T23:32:44.406Z,2.87
2023-04-05T23:35:12.801Z,3.03
2023-04-05T23:37:41.204Z,2.70
2023-04-05T23:40:10.753Z,2.70
2023-04-05T23:42:40.610Z,2.43
2023-04-05T23:45:10.667Z,2.30
2023-04-05T23:47:39.263Z,4.03
2023-04-05T23:50:09.256Z,3.03
2023-04-05T23:52:37.664Z,2.60
2023-04-05T23:55:06.960Z,3.03
2023-04-05T23:57:35.687Z,2.43
